Terminal Aerodrome Forecast
Issued by NWS

Home | Current Version | Previous Version | Text Only | Print | Product List | Glossary Off
Versions: 1 2 3 4 5 6 7 8 9 10 11 12 13 14 15 16 17 18

000
FTUS43 KGRB 241720
TAFRHI
TAF
KRHI 241720Z 2418/2518 12004KT P6SM SKC
     FM242300 17004KT P6SM SCT250
     FM251600 19008KT P6SM BKN200=

USA.gov is the U.S. government's official web portal to all federal, state and local government web resources and services.